Time;durP1;ratioP1;P1;durP2;ratioP2;P2;SDS_P1;SDS_P2;PMS_P1;PMS_P2;Temp;Humidity;BMP_temperature;BMP_pressure;BME280_temperature;BME280_humidity;BME280_pressure;Samples;Min_cycle;Max_cycle;Signal;HPM_P1;HPM_P2
2022/08/17 00:00:50;;;;;;;35.58;31.83;;;;;;;21.45;68.41;100880.06;5098003;27;20032;-60
2022/08/17 00:03:15;;;;;;;37.55;32.13;;;;;;;21.49;68.64;100888.50;5099198;28;20028;-57
2022/08/17 00:05:51;;;;;;;37.10;33.10;;;;;;;21.37;69.30;100873.13;5104890;28;20035;-60
2022/08/17 00:08:19;;;;;;;35.90;32.25;;;;;;;21.47;68.81;100874.44;5095856;28;20135;-57
2022/08/17 00:10:46;;;;;;;36.47;31.23;;;;;;;21.56;68.42;100873.00;5113304;27;20024;-57
2022/08/17 00:13:16;;;;;;;37.08;33.22;;;;;;;21.45;68.89;100873.81;5098799;28;20031;-59
2022/08/17 00:15:43;;;;;;;35.42;31.85;;;;;;;21.51;69.00;100867.50;5101906;28;20050;-58
2022/08/17 00:18:09;;;;;;;35.95;31.98;;;;;;;21.43;69.26;100866.00;5098080;28;20042;-58
2022/08/17 00:20:34;;;;;;;36.03;32.30;;;;;;;21.47;69.13;100858.25;5101284;28;20074;-60
2022/08/17 00:23:09;;;;;;;35.72;32.03;;;;;;;21.49;68.71;100853.44;5103786;28;20027;-57
2022/08/17 00:25:35;;;;;;;37.78;33.78;;;;;;;21.37;69.40;100848.84;5103330;28;20086;-59
2022/08/17 00:28:01;;;;;;;36.78;32.78;;;;;;;21.46;69.57;100843.13;5095742;28;20478;-58
2022/08/17 00:30:27;;;;;;;36.70;32.25;;;;;;;21.43;69.45;100839.00;5098127;27;20790;-57
2022/08/17 00:32:52;;;;;;;39.38;33.75;;;;;;;21.46;69.20;100846.63;5103590;28;20055;-58
2022/08/17 00:35:22;;;;;;;37.03;33.33;;;;;;;21.47;69.63;100844.75;5107384;28;20110;-58
2022/08/17 00:37:51;;;;;;;39.58;35.58;;;;;;;21.42;69.85;100841.94;5106583;28;20598;-57
2022/08/17 00:40:17;;;;;;;39.67;35.38;;;;;;;21.47;69.58;100837.47;5102139;28;20036;-57
2022/08/17 00:42:45;;;;;;;39.67;35.42;;;;;;;21.46;69.88;100832.34;5099018;28;20032;-59
2022/08/17 00:45:14;;;;;;;38.85;34.92;;;;;;;21.49;69.72;100837.25;5106060;28;20047;-57
2022/08/17 00:47:40;;;;;;;40.03;35.88;;;;;;;21.39;69.86;100837.00;5097500;28;20039;-57
2022/08/17 00:50:08;;;;;;;40.20;36.08;;;;;;;21.38;70.07;100838.91;5106005;27;20225;-56
2022/08/17 00:52:38;;;;;;;40.42;36.08;;;;;;;21.43;70.23;100838.19;5099951;28;20024;-59
2022/08/17 00:55:04;;;;;;;40.42;36.33;;;;;;;21.36;70.38;100839.13;5106333;28;20034;-58
2022/08/17 00:57:33;;;;;;;41.90;36.58;;;;;;;21.40;70.27;100836.78;5105277;28;20032;-57
2022/08/17 01:00:15;;;;;;;40.10;35.75;;;;;;;21.43;69.89;100838.19;5101927;27;20108;-57
2022/08/17 01:02:43;;;;;;;39.53;35.65;;;;;;;21.31;70.59;100830.91;5105602;28;20031;-57
2022/08/17 01:05:16;;;;;;;39.58;35.45;;;;;;;21.32;70.76;100832.53;5102866;28;20088;-60
2022/08/17 01:07:43;;;;;;;42.28;36.92;;;;;;;21.31;70.64;100833.59;5107053;28;20035;-58
2022/08/17 01:10:11;;;;;;;39.60;35.40;;;;;;;21.34;70.60;100827.75;5100183;27;20028;-56
2022/08/17 01:12:37;;;;;;;41.53;37.08;;;;;;;21.22;71.11;100833.13;5103018;28;20144;-57
2022/08/17 01:15:05;;;;;;;40.75;36.55;;;;;;;21.29;70.78;100833.03;5106457;28;20141;-57
2022/08/17 01:17:32;;;;;;;42.13;37.92;;;;;;;21.21;71.16;100834.19;5105406;28;20101;-59
2022/08/17 01:19:58;;;;;;;40.53;36.15;;;;;;;21.26;70.76;100822.69;5102527;28;20481;-58
2022/08/17 01:22:24;;;;;;;40.78;36.38;;;;;;;21.29;70.62;100816.84;5103481;28;20027;-56
2022/08/17 01:24:55;;;;;;;43.35;38.60;;;;;;;21.19;70.90;100817.44;5106099;28;20562;-58
2022/08/17 01:27:22;;;;;;;41.37;37.17;;;;;;;21.23;70.87;100817.78;5098190;28;20801;-58
2022/08/17 01:29:57;;;;;;;42.28;37.88;;;;;;;21.14;71.56;100816.47;5093611;28;20039;-58
2022/08/17 01:32:24;;;;;;;39.40;35.45;;;;;;;21.23;70.86;100817.78;5097156;28;20039;-60
2022/08/17 01:34:49;;;;;;;42.75;38.15;;;;;;;21.17;71.55;100816.81;5101882;28;20088;-58
2022/08/17 01:37:15;;;;;;;42.40;37.90;;;;;;;21.17;71.10;100808.72;5104007;28;20107;-60
2022/08/17 01:39:50;;;;;;;40.75;36.67;;;;;;;21.16;71.09;100806.28;5104522;27;20046;-58
2022/08/17 01:42:40;;;;;;;43.30;37.92;;;;;;;21.18;70.66;100804.19;5105358;28;20027;-58
2022/08/17 01:45:15;;;;;;;42.65;38.10;;;;;;;21.07;72.10;100803.94;5093797;28;20055;-58
2022/08/17 01:47:41;;;;;;;40.50;36.25;;;;;;;21.07;71.76;100803.94;5086223;28;20436;-58
2022/08/17 01:50:10;;;;;;;41.35;37.10;;;;;;;21.04;71.96;100793.63;5102560;28;20089;-60
2022/08/17 01:52:36;;;;;;;42.15;37.78;;;;;;;20.98;72.11;100799.94;5099429;28;20046;-58
2022/08/17 01:55:04;;;;;;;39.85;35.67;;;;;;;20.97;72.13;100803.69;5100342;28;20115;-57
2022/08/17 01:57:29;;;;;;;39.67;35.55;;;;;;;21.05;71.78;100805.22;5103027;28;20035;-58
2022/08/17 01:59:54;;;;;;;40.30;36.25;;;;;;;21.02;71.96;100801.09;5105238;28;20039;-61
2022/08/17 02:02:22;;;;;;;41.85;37.70;;;;;;;20.89;72.47;100806.72;5105523;28;20485;-59
2022/08/17 02:04:47;;;;;;;41.22;36.92;;;;;;;20.90;72.53;100798.41;5099349;28;20126;-58
2022/08/17 02:07:12;;;;;;;43.38;38.70;;;;;;;20.67;73.28;100789.19;5104612;28;20642;-58
2022/08/17 02:09:38;;;;;;;41.83;37.40;;;;;;;20.70;73.38;100794.13;5102627;27;20104;-59
2022/08/17 02:12:03;;;;;;;42.22;38.00;;;;;;;20.67;73.62;100799.97;5094346;28;20038;-57
2022/08/17 02:14:29;;;;;;;40.65;36.53;;;;;;;20.64;73.94;100796.91;5103487;28;20063;-57
2022/08/17 02:16:54;;;;;;;42.05;37.75;;;;;;;20.61;73.94;100789.28;5103807;28;20024;-57
2022/08/17 02:19:21;;;;;;;41.40;37.00;;;;;;;20.62;74.01;100794.44;5093745;27;20031;-61
2022/08/17 02:21:48;;;;;;;41.65;37.35;;;;;;;20.66;73.72;100794.78;5103993;28;20028;-58
2022/08/17 02:24:19;;;;;;;42.03;37.72;;;;;;;20.59;73.79;100803.00;5103202;28;20035;-59
2022/08/17 02:26:45;;;;;;;40.92;36.53;;;;;;;20.67;73.56;100801.84;5098873;28;20052;-61
2022/08/17 02:29:11;;;;;;;41.65;37.22;;;;;;;20.60;73.77;100798.41;5101945;27;20027;-60
2022/08/17 02:31:36;;;;;;;42.92;38.67;;;;;;;20.46;74.57;100795.91;5100480;27;20517;-57
2022/08/17 02:34:02;;;;;;;42.72;38.53;;;;;;;20.56;74.13;100796.19;5087465;28;20075;-61
2022/08/17 02:36:28;;;;;;;43.33;39.03;;;;;;;20.47;74.56;100794.06;5101907;28;20035;-58
2022/08/17 02:38:53;;;;;;;43.90;39.58;;;;;;;20.34;74.90;100789.66;5103177;28;20381;-60
2022/08/17 02:41:18;;;;;;;42.55;38.08;;;;;;;20.47;74.64;100789.47;5101376;28;20130;-59
2022/08/17 02:43:44;;;;;;;45.80;41.15;;;;;;;20.35;75.20;100788.59;5105096;28;20467;-61
2022/08/17 02:46:11;;;;;;;44.00;39.45;;;;;;;20.44;74.98;100784.56;5102575;28;20158;-58
2022/08/17 02:48:36;;;;;;;44.58;39.88;;;;;;;20.43;74.95;100777.53;5105178;28;20938;-57
2022/08/17 02:51:02;;;;;;;43.95;39.22;;;;;;;20.42;75.56;100776.69;5102154;27;20087;-58
2022/08/17 02:53:27;;;;;;;43.45;39.08;;;;;;;20.40;75.76;100778.81;5101711;28;20036;-60
2022/08/17 02:55:52;;;;;;;43.13;38.67;;;;;;;20.37;75.65;100778.44;5099802;28;20039;-57
2022/08/17 02:58:18;;;;;;;43.03;38.63;;;;;;;20.31;75.66;100773.97;5104791;28;20039;-57
2022/08/17 03:00:47;;;;;;;43.05;38.60;;;;;;;20.35;75.72;100780.53;5098948;28;20063;-59
2022/08/17 03:03:17;;;;;;;44.03;39.45;;;;;;;20.21;76.31;100774.50;5102382;28;20054;-58
2022/08/17 03:05:44;;;;;;;44.33;39.55;;;;;;;20.16;76.53;100773.31;5101754;28;20042;-58
2022/08/17 03:08:10;;;;;;;45.38;40.72;;;;;;;20.10;76.55;100768.03;5100133;28;20039;-58
2022/08/17 03:10:36;;;;;;;43.97;39.28;;;;;;;20.15;76.16;100770.84;5110601;27;20038;-58
2022/08/17 03:13:01;;;;;;;44.25;39.50;;;;;;;20.12;76.18;100763.22;5080583;28;20496;-58
2022/08/17 03:15:30;;;;;;;44.58;40.03;;;;;;;20.07;76.58;100760.41;5100651;28;20031;-57
2022/08/17 03:17:57;;;;;;;42.35;38.05;;;;;;;20.13;76.30;100757.63;5103007;28;20027;-57
2022/08/17 03:20:24;;;;;;;41.58;37.03;;;;;;;20.15;76.22;100770.84;5107307;27;20069;-58
2022/08/17 03:22:53;;;;;;;43.00;38.35;;;;;;;20.19;76.07;100760.44;5093777;28;20039;-57
2022/08/17 03:25:23;;;;;;;42.67;37.45;;;;;;;20.18;76.51;100770.38;5093142;28;20070;-58
2022/08/17 03:27:49;;;;;;;42.65;38.15;;;;;;;20.20;76.21;100762.09;5092168;28;20039;-58
2022/08/17 03:30:14;;;;;;;41.10;36.92;;;;;;;20.22;75.79;100766.19;5091190;28;20119;-61
2022/08/17 03:32:43;;;;;;;41.45;37.13;;;;;;;20.20;75.94;100771.00;5104757;28;20119;-62
2022/08/17 03:35:10;;;;;;;40.78;36.60;;;;;;;20.22;76.18;100776.97;5101050;28;20444;-61
2022/08/17 03:37:36;;;;;;;41.70;37.42;;;;;;;20.20;76.38;100772.84;5095772;28;20844;-57
2022/08/17 03:40:03;;;;;;;40.80;36.50;;;;;;;20.24;75.74;100769.47;5099610;28;20038;-59
2022/08/17 03:42:28;;;;;;;44.97;35.92;;;;;;;20.23;75.99;100775.91;5103504;28;20480;-58
2022/08/17 03:44:56;;;;;;;40.92;36.45;;;;;;;20.19;76.46;100772.06;5090997;28;20060;-59
2022/08/17 03:58:21;;;;;;;39.35;35.15;;;;;;;20.23;76.27;100777.81;5100728;28;20249;-57
2022/08/17 04:00:46;;;;;;;43.75;37.45;;;;;;;20.23;76.92;100784.00;5095632;28;20103;-57
2022/08/17 04:03:12;;;;;;;40.08;35.88;;;;;;;20.26;76.87;100793.50;5103860;28;20057;-57
2022/08/17 04:05:38;;;;;;;40.13;35.90;;;;;;;20.23;76.94;100792.06;5103832;28;20077;-59
2022/08/17 04:08:04;;;;;;;41.05;36.75;;;;;;;20.17;77.60;100806.44;5100938;28;20652;-58
2022/08/17 04:10:29;;;;;;;40.53;36.22;;;;;;;20.10;77.90;100816.47;5097593;28;20054;-58
2022/08/17 04:12:57;;;;;;;39.60;35.50;;;;;;;20.03;78.05;100840.75;5103748;28;20035;-57
2022/08/17 04:15:23;;;;;;;42.17;35.35;;;;;;;20.02;78.52;100842.66;5104036;28;20024;-57
2022/08/17 04:17:49;;;;;;;43.50;38.95;;;;;;;19.85;79.81;100841.56;5099290;28;20127;-59
2022/08/17 04:20:16;;;;;;;43.50;38.92;;;;;;;19.73;80.40;100839.63;5094119;28;20123;-60
2022/08/17 04:23:15;;;;;;;44.38;39.90;;;;;;;19.83;79.27;100830.22;5102725;28;20028;-57
2022/08/17 04:25:44;;;;;;;42.63;38.30;;;;;;;19.81;80.14;100832.28;5043316;28;20142;-57
2022/08/17 04:28:10;;;;;;;43.53;38.35;;;;;;;19.85;80.84;100841.56;5103125;28;20035;-57
2022/08/17 04:30:37;;;;;;;44.20;39.70;;;;;;;19.87;80.98;100844.84;5105499;28;20028;-56
2022/08/17 04:33:08;;;;;;;42.78;38.47;;;;;;;19.86;81.17;100843.22;5096013;28;20181;-62
2022/08/17 04:35:43;;;;;;;42.70;38.20;;;;;;;19.91;81.22;100854.13;5101095;28;20032;-58
2022/08/17 04:38:11;;;;;;;42.60;38.17;;;;;;;19.95;80.67;100866.09;5098950;28;20029;-60
2022/08/17 04:43:22;;;;;;;40.15;35.97;;;;;;;20.03;80.15;100878.44;5103825;28;20953;-57
2022/08/17 04:45:54;;;;;;;42.25;37.65;;;;;;;19.98;81.14;100873.75;5099618;28;20117;-58
2022/08/17 04:48:19;;;;;;;40.42;36.20;;;;;;;20.05;80.87;100881.75;5105752;28;20035;-60
2022/08/17 04:50:47;;;;;;;40.72;36.63;;;;;;;20.02;80.88;100891.09;5102936;27;20527;-58
2022/08/17 04:53:14;;;;;;;41.47;36.97;;;;;;;19.97;81.79;100887.41;5095057;28;20035;-59
2022/08/17 04:55:40;;;;;;;42.90;38.40;;;;;;;19.88;82.02;100879.63;5104819;28;20144;-58
2022/08/17 04:58:06;;;;;;;42.25;37.83;;;;;;;19.83;81.96;100865.19;5098570;27;20565;-60
2022/08/17 05:00:32;;;;;;;42.85;36.60;;;;;;;19.88;81.95;100876.09;5109055;27;20042;-60
2022/08/17 05:02:58;;;;;;;41.65;37.20;;;;;;;19.92;81.38;100858.47;5102959;28;20023;-58
2022/08/17 05:05:29;;;;;;;41.97;37.47;;;;;;;19.94;82.30;100867.16;5104965;28;20031;-59
2022/08/17 05:07:57;;;;;;;40.92;36.63;;;;;;;19.98;81.69;100868.34;5102273;28;20560;-59
2022/08/17 05:10:24;;;;;;;40.85;35.83;;;;;;;20.01;81.72;100864.41;5101376;27;20107;-59
2022/08/17 05:13:02;;;;;;;40.00;35.80;;;;;;;20.05;81.67;100854.00;5104363;28;20039;-58
2022/08/17 05:15:28;;;;;;;42.90;37.75;;;;;;;20.00;82.14;100852.84;5099488;28;20051;-58
2022/08/17 05:17:53;;;;;;;40.95;36.75;;;;;;;20.07;82.30;100860.00;5101393;28;20059;-59
2022/08/17 05:20:20;;;;;;;40.83;35.95;;;;;;;20.10;82.03;100862.22;5103052;28;20815;-61
2022/08/17 05:22:54;;;;;;;39.95;35.72;;;;;;;20.10;81.69;100864.94;5098068;28;20024;-60
2022/08/17 05:25:21;;;;;;;38.55;34.60;;;;;;;20.05;81.94;100862.91;5104840;28;20047;-61
2022/08/17 05:27:47;;;;;;;37.75;33.78;;;;;;;20.17;81.93;100865.66;5099016;28;20035;-63
2022/08/17 05:30:14;;;;;;;36.53;32.83;;;;;;;20.26;81.91;100856.25;5094988;28;20051;-61
2022/08/17 05:32:57;;;;;;;36.25;32.45;;;;;;;20.27;81.57;100855.19;5106864;28;20043;-62
2022/08/17 05:35:24;;;;;;;38.67;34.53;;;;;;;20.22;81.70;100854.25;5104795;28;20613;-61
2022/08/17 05:37:49;;;;;;;36.25;32.38;;;;;;;20.22;81.28;100846.97;5103330;28;20125;-59
2022/08/17 05:40:15;;;;;;;36.35;32.58;;;;;;;20.27;81.75;100843.59;5103442;28;20053;-60
2022/08/17 05:42:41;;;;;;;36.53;32.63;;;;;;;20.19;81.72;100851.97;5106300;28;20114;-61
2022/08/17 05:45:08;;;;;;;35.97;32.22;;;;;;;20.24;81.94;100854.81;5105484;28;20540;-60
2022/08/17 05:47:36;;;;;;;34.80;31.25;;;;;;;20.29;81.62;100847.69;5099573;28;20052;-60
2022/08/17 05:50:02;;;;;;;34.00;30.40;;;;;;;20.35;81.20;100850.53;5105046;27;20043;-61
2022/08/17 05:53:00;;;;;;;33.72;30.23;;;;;;;20.42;80.62;100851.28;5103199;28;20073;-59
2022/08/17 05:55:34;;;;;;;33.45;29.83;;;;;;;20.42;80.67;100848.56;5092288;28;20048;-61
2022/08/17 05:58:21;;;;;;;33.28;29.75;;;;;;;20.46;80.21;100849.78;5103624;28;20508;-61
2022/08/17 06:01:00;;;;;;;33.30;29.90;;;;;;;20.49;80.46;100854.72;5100075;28;20039;-60
2022/08/17 06:03:35;;;;;;;30.98;27.70;;;;;;;20.58;80.27;100857.09;5096681;28;20028;-62
2022/08/17 06:06:15;;;;;;;30.98;27.73;;;;;;;20.63;79.26;100852.66;5099527;28;20039;-60
2022/08/17 06:09:13;;;;;;;30.63;27.35;;;;;;;20.65;79.28;100850.56;5102611;28;20028;-60
2022/08/17 06:12:22;;;;;;;29.52;26.42;;;;;;;20.74;78.93;100859.16;5042710;28;20189;-60
2022/08/17 06:15:07;;;;;;;29.45;26.23;;;;;;;20.76;78.68;100862.41;5084024;28;20052;-61
2022/08/17 06:17:33;;;;;;;29.17;26.17;;;;;;;20.78;78.75;100859.50;5104812;28;20480;-60
2022/08/17 06:20:04;;;;;;;32.63;27.08;;;;;;;20.76;79.14;100859.72;5097569;28;20078;-59
2022/08/17 06:22:34;;;;;;;31.40;27.00;;;;;;;20.77;79.52;100869.44;5102198;28;20958;-59
2022/08/17 06:25:05;;;;;;;30.08;26.88;;;;;;;20.77;78.99;100882.13;5098090;28;20053;-59
2022/08/17 06:27:37;;;;;;;28.63;25.60;;;;;;;20.77;78.78;100882.13;5096972;28;20612;-59
2022/08/17 06:30:14;;;;;;;29.25;25.80;;;;;;;20.75;78.56;100893.13;5094557;28;20119;-60
2022/08/17 06:32:42;;;;;;;28.00;24.92;;;;;;;20.73;78.46;100889.84;5099260;28;20036;-59
2022/08/17 06:35:10;;;;;;;27.92;24.92;;;;;;;20.73;79.21;100887.16;5103833;28;20028;-60
2022/08/17 06:37:36;;;;;;;28.83;24.23;;;;;;;20.76;78.67;100893.91;5101930;28;20035;-62
2022/08/17 06:40:33;;;;;;;28.77;23.95;;;;;;;20.74;78.22;100896.03;5103398;27;20034;-60
2022/08/17 06:43:18;;;;;;;29.67;24.65;;;;;;;20.71;78.50;100897.31;5060408;28;20047;-60
2022/08/17 06:46:00;;;;;;;25.25;22.65;;;;;;;20.64;78.33;100897.41;5102449;28;20043;-61
2022/08/17 06:48:42;;;;;;;26.75;23.90;;;;;;;20.61;79.32;100894.34;5103084;28;20174;-60
2022/08/17 06:51:34;;;;;;;26.17;23.38;;;;;;;20.65;78.57;100903.59;5100299;28;20035;-60
2022/08/17 06:54:12;;;;;;;29.55;23.55;;;;;;;20.62;79.16;100909.47;5099234;28;20118;-59
2022/08/17 06:56:46;;;;;;;26.10;22.00;;;;;;;20.53;78.79;100907.06;5101515;28;20058;-59
2022/08/17 06:59:18;;;;;;;25.00;21.23;;;;;;;20.46;79.16;100895.56;5102680;28;20171;-62
2022/08/17 07:01:47;;;;;;;26.67;21.07;;;;;;;20.58;79.12;100910.97;5098887;28;20031;-59
2022/08/17 07:04:18;;;;;;;23.20;20.35;;;;;;;20.59;78.47;100918.00;5094849;28;20297;-61
2022/08/17 07:06:55;;;;;;;23.35;20.75;;;;;;;20.60;78.96;100911.53;5097265;28;20059;-61
2022/08/17 07:09:32;;;;;;;23.00;20.65;;;;;;;20.49;78.55;100911.28;5096521;28;20035;-61
2022/08/17 07:12:14;;;;;;;24.15;20.30;;;;;;;20.63;78.38;100919.19;5104254;28;20035;-59
2022/08/17 07:15:21;;;;;;;26.30;20.08;;;;;;;20.75;78.14;100917.38;5104855;28;20399;-61
2022/08/17 07:17:47;;;;;;;22.60;19.48;;;;;;;20.72;78.24;100920.50;4994526;28;20499;-60
2022/08/17 07:20:19;;;;;;;23.05;19.67;;;;;;;20.77;77.91;100923.34;5080172;28;20053;-60
2022/08/17 07:22:45;;;;;;;24.10;20.05;;;;;;;20.69;78.21;100926.38;5100699;28;20028;-59
2022/08/17 07:25:17;;;;;;;25.75;20.98;;;;;;;20.69;78.52;100920.97;5102478;28;20139;-59
2022/08/17 07:27:51;;;;;;;25.35;19.90;;;;;;;20.71;77.89;100918.88;5093710;28;20096;-59
2022/08/17 07:30:24;;;;;;;22.05;19.70;;;;;;;20.75;78.34;100924.63;5094295;28;20062;-61
2022/08/17 07:33:10;;;;;;;24.65;21.20;;;;;;;20.74;78.62;100933.75;5096225;28;20524;-59
2022/08/17 07:35:41;;;;;;;23.35;19.38;;;;;;;20.79;78.22;100934.72;5098584;28;20035;-62
2022/08/17 07:38:27;;;;;;;23.38;19.77;;;;;;;20.80;77.67;100933.69;5095540;28;20081;-60
2022/08/17 07:41:01;;;;;;;23.02;19.63;;;;;;;20.83;77.97;100938.59;5096753;28;20023;-60
2022/08/17 07:43:29;;;;;;;21.27;18.98;;;;;;;20.82;78.07;100939.66;5102586;28;20039;-61
2022/08/17 07:48:59;;;;;;;21.45;19.15;;;;;;;20.89;78.16;100954.94;5099524;28;20403;-60
2022/08/17 07:51:30;;;;;;;22.00;19.55;;;;;;;20.94;78.12;100949.69;5082761;28;20028;-61
2022/08/17 07:53:59;;;;;;;23.48;19.65;;;;;;;20.91;78.16;100944.75;5093706;28;20115;-60
2022/08/17 07:56:30;;;;;;;22.30;19.35;;;;;;;20.97;77.73;100951.94;5100304;28;20519;-60
2022/08/17 07:59:09;;;;;;;23.90;19.60;;;;;;;21.00;77.51;100951.47;5101351;28;20027;-62
2022/08/17 08:01:36;;;;;;;22.58;19.67;;;;;;;20.99;77.15;100947.13;5093105;28;20035;-61
2022/08/17 08:04:16;;;;;;;23.70;20.23;;;;;;;21.05;76.95;100948.91;5099049;28;20027;-61
2022/08/17 08:06:51;;;;;;;21.85;19.40;;;;;;;21.06;76.69;100950.56;5094036;28;20399;-60
2022/08/17 08:09:33;;;;;;;23.95;20.65;;;;;;;21.08;76.77;100951.13;5100837;28;20097;-62
2022/08/17 08:12:18;;;;;;;24.73;20.67;;;;;;;21.08;77.39;100953.03;5094269;28;20051;-61
2022/08/17 08:14:55;;;;;;;24.00;20.30;;;;;;;21.10;77.36;100953.63;5095962;28;20484;-61
2022/08/17 08:17:24;;;;;;;23.00;20.50;;;;;;;21.08;76.14;100956.53;5100676;27;20036;-60
2022/08/17 08:19:49;;;;;;;23.83;20.58;;;;;;;21.13;76.64;100955.03;5098616;28;20466;-61
2022/08/17 08:22:28;;;;;;;24.60;20.00;;;;;;;21.17;77.00;100953.53;5099119;28;20150;-61
2022/08/17 08:25:17;;;;;;;27.80;21.77;;;;;;;21.09;76.77;100947.41;5100822;27;20099;-61
2022/08/17 08:27:56;;;;;;;24.33;21.23;;;;;;;21.21;76.41;100938.50;5088920;27;20050;-60
2022/08/17 08:30:21;;;;;;;24.92;22.25;;;;;;;21.19;76.23;100936.06;5117731;27;20106;-60
2022/08/17 08:33:22;;;;;;;24.92;22.27;;;;;;;21.24;76.36;100932.69;5105290;28;20681;-60
2022/08/17 08:35:53;;;;;;;24.73;22.02;;;;;;;21.15;76.06;100929.50;5103813;28;20084;-60
2022/08/17 08:38:42;;;;;;;26.65;21.67;;;;;;;21.24;75.52;100927.28;5101417;28;20038;-60
2022/08/17 08:41:28;;;;;;;27.05;22.10;;;;;;;21.18;76.82;100936.28;5101233;28;20077;-60
2022/08/17 08:44:04;;;;;;;26.55;21.98;;;;;;;21.23;76.40;100931.03;5093881;28;20027;-61
2022/08/17 08:46:52;;;;;;;27.73;22.83;;;;;;;21.25;75.69;100950.50;5100323;28;20055;-61
2022/08/17 08:49:35;;;;;;;25.00;22.40;;;;;;;21.33;75.80;100963.66;5105405;27;20035;-60
2022/08/17 08:52:09;;;;;;;25.27;22.55;;;;;;;21.30;75.30;100968.66;5090290;28;20419;-61
2022/08/17 08:54:46;;;;;;;26.35;23.55;;;;;;;21.45;74.80;100984.44;5101038;28;20036;-60
2022/08/17 08:57:20;;;;;;;26.40;22.55;;;;;;;21.46;74.51;100981.50;5100226;28;20582;-61
2022/08/17 09:00:16;;;;;;;28.20;23.63;;;;;;;21.53;74.26;100978.72;5101758;27;20038;-60
2022/08/17 09:03:01;;;;;;;26.92;23.13;;;;;;;21.63;74.04;100968.19;5096530;28;20388;-62
2022/08/17 09:05:35;;;;;;;26.85;23.55;;;;;;;21.59;74.80;100975.09;5105452;28;20035;-60
2022/08/17 09:08:15;;;;;;;25.52;22.67;;;;;;;21.60;75.11;100968.63;5103812;28;20039;-60
2022/08/17 09:11:02;;;;;;;25.60;22.80;;;;;;;21.69;74.25;100968.28;5100264;27;20411;-62
2022/08/17 09:14:03;;;;;;;27.92;23.92;;;;;;;21.77;74.24;100976.06;5101001;28;20107;-61
2022/08/17 09:16:35;;;;;;;27.20;24.20;;;;;;;21.63;74.04;100976.28;5091506;28;20032;-61
2022/08/17 09:19:28;;;;;;;26.25;22.77;;;;;;;21.71;74.37;100975.13;5094187;27;20048;-60
2022/08/17 09:22:00;;;;;;;25.35;22.60;;;;;;;21.71;75.04;100979.72;5096907;28;20488;-60
2022/08/17 09:24:42;;;;;;;26.13;23.23;;;;;;;21.74;75.15;100979.22;5103995;28;20042;-61
2022/08/17 09:27:12;;;;;;;26.48;23.58;;;;;;;21.64;74.80;100986.00;5099449;27;20039;-63
2022/08/17 09:29:44;;;;;;;24.92;22.23;;;;;;;21.62;74.87;100982.69;5097706;27;20031;-61
2022/08/17 09:32:39;;;;;;;26.60;22.30;;;;;;;21.73;75.10;100989.22;5102913;28;20066;-60
2022/08/17 09:35:16;;;;;;;24.35;21.70;;;;;;;21.69;75.08;100993.41;5096492;28;20111;-60
2022/08/17 09:38:18;;;;;;;25.42;22.73;;;;;;;21.71;74.96;101012.09;5105640;28;20050;-60
2022/08/17 09:41:09;;;;;;;25.02;22.20;;;;;;;21.69;75.14;101014.16;5093583;28;20088;-62
2022/08/17 09:43:41;;;;;;;25.85;23.10;;;;;;;21.64;75.42;101039.97;5105588;28;20092;-62
2022/08/17 09:46:23;;;;;;;27.88;23.92;;;;;;;21.68;77.42;101044.91;5103971;28;20622;-62
2022/08/17 09:48:56;;;;;;;29.73;23.57;;;;;;;21.60;77.15;101060.38;5093327;28;20047;-61
2022/08/17 09:51:33;;;;;;;;;;;;;;;21.73;75.25;101069.34;5094697;28;20032;-59
2022/08/17 09:53:59;;;;;;;26.77;23.88;;;;;;;21.54;78.37;101072.09;5096297;28;19916;-60
2022/08/17 09:56:36;;;;;;;26.60;22.88;;;;;;;21.49;78.16;101066.53;5107088;28;20541;-60
2022/08/17 09:59:15;;;;;;;28.55;23.35;;;;;;;21.44;78.40;101071.81;5100632;28;20055;-61
2022/08/17 10:01:59;;;;;;;29.95;24.77;;;;;;;21.36;79.87;101054.88;5106361;27;20024;-60
2022/08/17 10:04:37;;;;;;;29.77;25.77;;;;;;;21.25;82.69;101052.16;5106873;28;20073;-60
2022/08/17 10:07:19;;;;;;;30.98;26.08;;;;;;;20.94;83.79;101041.34;5105020;28;20043;-60
2022/08/17 10:10:03;;;;;;;31.75;26.60;;;;;;;20.90;83.84;101050.91;5095666;28;20842;-60
2022/08/17 10:12:39;;;;;;;32.35;26.30;;;;;;;20.69;84.22;101044.91;5100177;28;20531;-60
2022/08/17 10:15:18;;;;;;;30.73;27.38;;;;;;;20.70;87.48;101051.94;5097734;28;20401;-60
2022/08/17 10:18:20;;;;;;;33.17;27.55;;;;;;;20.72;87.21;101044.44;5102380;28;20046;-63
2022/08/17 10:26:11;;;;;;;34.22;28.30;;;;;;;20.60;87.99;101046.25;5101836;28;20130;-60
2022/08/17 10:26:34;;;;;;;35.35;30.30;;;;;;;20.60;89.58;101040.84;5096589;28;20050;-62
2022/08/17 10:29:11;;;;;;;37.70;31.75;;;;;;;20.50;90.99;101047.59;5102391;28;20447;-61
2022/08/17 10:31:44;;;;;;;36.83;31.60;;;;;;;20.50;92.14;101044.06;5105863;27;20019;-61
2022/08/17 10:34:34;;;;;;;36.75;32.35;;;;;;;20.45;93.21;101049.28;5099206;28;20517;-61
2022/08/17 10:37:18;;;;;;;34.70;30.58;;;;;;;20.48;93.38;101043.47;5101888;28;20085;-61
2022/08/17 10:39:56;;;;;;;36.92;32.10;;;;;;;20.47;94.29;101048.03;5112534;27;20042;-61
2022/08/17 10:42:33;;;;;;;35.63;31.25;;;;;;;20.44;92.74;101032.34;5092760;28;20035;-61
2022/08/17 10:45:25;;;;;;;34.70;30.70;;;;;;;20.52;93.31;101029.34;5100691;27;20191;-58
2022/08/17 10:48:21;;;;;;;36.72;31.23;;;;;;;20.48;93.07;101022.75;5099941;28;20503;-60
2022/08/17 10:50:56;;;;;;;34.42;29.95;;;;;;;20.38;91.91;101017.06;5099172;27;20054;-60
2022/08/17 10:53:30;;;;;;;38.90;32.75;;;;;;;20.47;94.21;101015.72;5098677;28;20023;-60
2022/08/17 10:56:10;;;;;;;34.78;29.65;;;;;;;20.41;92.88;101005.84;5102619;28;20043;-61
2022/08/17 10:58:58;;;;;;;36.72;30.65;;;;;;;20.41;91.60;100986.97;5102032;28;20061;-61
2022/08/17 11:01:32;;;;;;;33.75;30.15;;;;;;;20.30;92.64;100991.25;5099039;28;20031;-59
2022/08/17 11:04:05;;;;;;;34.90;30.17;;;;;;;20.20;91.96;100991.75;5095369;28;20024;-57
2022/08/17 11:07:00;;;;;;;35.15;31.15;;;;;;;20.27;93.17;100999.75;5096389;28;20035;-57
2022/08/17 11:10:17;;;;;;;32.78;29.27;;;;;;;20.27;92.34;101007.84;5098917;27;20036;-57
2022/08/17 11:13:29;;;;;;;36.45;30.50;;;;;;;20.34;93.10;101005.91;5075847;28;20039;-60
2022/08/17 11:16:07;;;;;;;35.63;30.67;;;;;;;20.29;93.77;101001.19;5010268;28;20034;-58
2022/08/17 11:18:52;;;;;;;35.83;30.73;;;;;;;20.29;94.27;101008.44;5020380;28;20445;-57
2022/08/17 11:21:58;;;;;;;33.35;29.75;;;;;;;20.27;92.55;101008.66;5079616;27;20039;-58
2022/08/17 11:24:30;;;;;;;35.90;30.80;;;;;;;20.27;95.72;101019.44;5057117;28;20520;-60
2022/08/17 11:27:23;;;;;;;35.92;32.13;;;;;;;20.22;95.06;101019.28;5090275;28;20095;-58
2022/08/17 11:29:59;;;;;;;;;;;;;;;20.37;91.57;101027.00;5103998;28;20060;-58
2022/08/17 11:32:30;;;;;;;34.08;30.27;;;;;;;20.34;94.65;101042.78;5101222;28;19920;-58
2022/08/17 11:35:19;;;;;;;35.28;31.52;;;;;;;20.37;93.65;101039.66;5102265;28;20101;-59
2022/08/17 11:38:36;;;;;;;36.53;30.63;;;;;;;20.35;93.61;101050.66;5094350;28;20035;-57
2022/08/17 11:41:17;;;;;;;34.40;29.65;;;;;;;20.39;92.82;101067.19;5022179;28;20694;-59
2022/08/17 11:44:09;;;;;;;34.45;29.42;;;;;;;20.41;93.38;101065.09;5017501;28;20056;-59
2022/08/17 11:53:36;;;;;;;34.05;29.77;;;;;;;20.56;93.65;101070.94;5104201;28;20046;-58
2022/08/17 11:56:08;;;;;;;37.55;31.67;;;;;;;20.49;94.50;101075.59;5098648;28;20032;-58
2022/08/17 11:58:42;;;;;;;35.55;30.40;;;;;;;20.59;93.60;101071.53;5095410;28;20089;-58
2022/08/17 12:01:22;;;;;;;34.55;30.88;;;;;;;20.63;95.01;101083.53;5106974;27;20040;-58
2022/08/17 12:03:53;;;;;;;33.35;28.88;;;;;;;20.59;93.66;101093.94;5107914;28;20081;-60
2022/08/17 12:06:40;;;;;;;33.78;30.38;;;;;;;20.59;94.24;101088.53;5107259;28;20042;-59